sensor_id;sensor_type;location;lat;lon;timestamp;pressure;altitude;pressure_sealevel;temperature;humidity
13387;BME280;6763;48.524;9.044;2023-02-19T00:01:28;98305.66;;;15.77;47.57
13387;BME280;6763;48.524;9.044;2023-02-19T00:03:59;98311.56;;;15.82;47.44
13387;BME280;6763;48.524;9.044;2023-02-19T00:06:26;98302.72;;;15.86;47.29
13387;BME280;6763;48.524;9.044;2023-02-19T00:08:52;98302.50;;;15.93;47.26
13387;BME280;6763;48.524;9.044;2023-02-19T00:11:20;98298.94;;;15.96;47.01
13387;BME280;6763;48.524;9.044;2023-02-19T00:13:48;98299.63;;;16.01;47.05
13387;BME280;6763;48.524;9.044;2023-02-19T00:16:16;98295.19;;;16.04;47.11
13387;BME280;6763;48.524;9.044;2023-02-19T00:18:43;98292.50;;;16.06;46.90
13387;BME280;6763;48.524;9.044;2023-02-19T00:21:09;98300.22;;;16.10;46.81
13387;BME280;6763;48.524;9.044;2023-02-19T00:23:35;98303.63;;;16.12;46.89
13387;BME280;6763;48.524;9.044;2023-02-19T00:26:08;98297.44;;;16.15;46.62
13387;BME280;6763;48.524;9.044;2023-02-19T00:28:34;98296.59;;;16.14;47.02
13387;BME280;6763;48.524;9.044;2023-02-19T00:31:15;98295.72;;;16.14;46.81
13387;BME280;6763;48.524;9.044;2023-02-19T00:33:42;98294.88;;;16.13;46.85
13387;BME280;6763;48.524;9.044;2023-02-19T00:36:07;98291.28;;;16.16;46.91
13387;BME280;6763;48.524;9.044;2023-02-19T00:38:37;98297.38;;;16.17;46.97
13387;BME280;6763;48.524;9.044;2023-02-19T00:41:03;98287.72;;;16.19;46.98
13387;BME280;6763;48.524;9.044;2023-02-19T00:46:19;98284.19;;;16.21;46.80
13387;BME280;6763;48.524;9.044;2023-02-19T00:48:44;98285.97;;;16.19;46.99
13387;BME280;6763;48.524;9.044;2023-02-19T00:51:10;98288.56;;;16.21;46.73
13387;BME280;6763;48.524;9.044;2023-02-19T00:53:36;98290.31;;;16.20;46.80
13387;BME280;6763;48.524;9.044;2023-02-19T00:56:01;98290.34;;;16.19;46.66
13387;BME280;6763;48.524;9.044;2023-02-19T00:58:27;98299.97;;;16.18;46.80
13387;BME280;6763;48.524;9.044;2023-02-19T01:00:52;98293.00;;;16.17;46.77
13387;BME280;6763;48.524;9.044;2023-02-19T01:03:17;98306.94;;;16.18;46.96
13387;BME280;6763;48.524;9.044;2023-02-19T01:05:43;98303.31;;;16.22;46.62
13387;BME280;6763;48.524;9.044;2023-02-19T01:08:08;98288.47;;;16.24;46.88
13387;BME280;6763;48.524;9.044;2023-02-19T01:10:33;98287.53;;;16.25;46.34
13387;BME280;6763;48.524;9.044;2023-02-19T01:12:59;98286.75;;;16.23;46.69
13387;BME280;6763;48.524;9.044;2023-02-19T01:15:24;98282.31;;;16.25;46.74
13387;BME280;6763;48.524;9.044;2023-02-19T01:17:49;98293.63;;;16.25;46.72
13387;BME280;6763;48.524;9.044;2023-02-19T01:20:15;98283.97;;;16.27;46.51
13387;BME280;6763;48.524;9.044;2023-02-19T01:22:40;98283.09;;;16.27;46.68
13387;BME280;6763;48.524;9.044;2023-02-19T01:25:05;98284.66;;;16.32;46.53
13387;BME280;6763;48.524;9.044;2023-02-19T01:27:31;98273.31;;;16.33;46.44
13387;BME280;6763;48.524;9.044;2023-02-19T01:29:56;98271.44;;;16.37;46.46
13387;BME280;6763;48.524;9.044;2023-02-19T01:32:21;98273.25;;;16.35;46.62
13387;BME280;6763;48.524;9.044;2023-02-19T01:34:47;98276.63;;;16.38;46.62
13387;BME280;6763;48.524;9.044;2023-02-19T01:37:12;98274.78;;;16.42;46.43
13387;BME280;6763;48.524;9.044;2023-02-19T01:39:38;98274.50;;;16.49;45.92
13387;BME280;6763;48.524;9.044;2023-02-19T01:42:04;98283.09;;;16.54;45.83
13387;BME280;6763;48.524;9.044;2023-02-19T01:46:58;98265.63;;;16.55;45.93
13387;BME280;6763;48.524;9.044;2023-02-19T01:49:27;98258.59;;;16.57;45.67
13387;BME280;6763;48.524;9.044;2023-02-19T01:52:03;98254.22;;;16.57;45.63
13387;BME280;6763;48.524;9.044;2023-02-19T01:54:32;98261.25;;;16.55;45.69
13387;BME280;6763;48.524;9.044;2023-02-19T01:57:01;98257.00;;;16.51;45.41
13387;BME280;6763;48.524;9.044;2023-02-19T01:59:28;98262.09;;;16.56;45.49
13387;BME280;6763;48.524;9.044;2023-02-19T02:01:55;98257.78;;;16.55;45.45
13387;BME280;6763;48.524;9.044;2023-02-19T02:04:20;98261.25;;;16.55;45.44
13387;BME280;6763;48.524;9.044;2023-02-19T02:06:49;98248.25;;;16.54;44.83
13387;BME280;6763;48.524;9.044;2023-02-19T02:09:19;98250.13;;;16.49;45.02
13387;BME280;6763;48.524;9.044;2023-02-19T02:12:04;98259.84;;;16.45;44.78
13387;BME280;6763;48.524;9.044;2023-02-19T02:14:33;98250.53;;;16.37;44.98
13387;BME280;6763;48.524;9.044;2023-02-19T02:22:37;98265.84;;;16.47;44.88
13387;BME280;6763;48.524;9.044;2023-02-19T02:30:36;98269.66;;;16.39;44.91
13387;BME280;6763;48.524;9.044;2023-02-19T02:36:02;98265.41;;;16.35;44.70
13387;BME280;6763;48.524;9.044;2023-02-19T02:38:28;98264.56;;;16.34;45.16
13387;BME280;6763;48.524;9.044;2023-02-19T02:40:55;98263.66;;;16.35;45.32
13387;BME280;6763;48.524;9.044;2023-02-19T02:43:21;98260.16;;;16.36;45.30
13387;BME280;6763;48.524;9.044;2023-02-19T02:45:47;98254.09;;;16.34;45.32
13387;BME280;6763;48.524;9.044;2023-02-19T02:51:05;98249.13;;;16.28;45.28
13387;BME280;6763;48.524;9.044;2023-02-19T02:53:52;98247.47;;;16.26;45.00
13387;BME280;6763;48.524;9.044;2023-02-19T02:56:38;98247.47;;;16.26;45.09
13387;BME280;6763;48.524;9.044;2023-02-19T02:59:09;98237.88;;;16.26;44.75
13387;BME280;6763;48.524;9.044;2023-02-19T03:01:48;98230.03;;;16.26;44.87
13387;BME280;6763;48.524;9.044;2023-02-19T03:08:03;98223.34;;;16.18;44.68
13387;BME280;6763;48.524;9.044;2023-02-19T03:13:02;98223.56;;;16.11;44.90
13387;BME280;6763;48.524;9.044;2023-02-19T03:15:53;98211.34;;;16.12;44.80
13387;BME280;6763;48.524;9.044;2023-02-19T03:18:49;98209.16;;;16.00;45.03
13387;BME280;6763;48.524;9.044;2023-02-19T03:21:37;98217.81;;;16.00;44.96
13387;BME280;6763;48.524;9.044;2023-02-19T03:24:05;98229.19;;;15.99;45.08
13387;BME280;6763;48.524;9.044;2023-02-19T03:26:51;98228.41;;;15.97;45.07
13387;BME280;6763;48.524;9.044;2023-02-19T03:29:20;98204.91;;;15.97;45.07
13387;BME280;6763;48.524;9.044;2023-02-19T03:31:50;98217.13;;;15.95;44.95
13387;BME280;6763;48.524;9.044;2023-02-19T03:34:21;98224.06;;;15.96;45.13
13387;BME280;6763;48.524;9.044;2023-02-19T03:37:07;98220.84;;;15.88;45.45
13387;BME280;6763;48.524;9.044;2023-02-19T03:39:34;98226.84;;;15.92;45.29
13387;BME280;6763;48.524;9.044;2023-02-19T03:42:19;98221.47;;;15.96;44.88
13387;BME280;6763;48.524;9.044;2023-02-19T03:58:04;98229.88;;;15.78;45.90
13387;BME280;6763;48.524;9.044;2023-02-19T04:00:40;98233.44;;;15.76;45.74
13387;BME280;6763;48.524;9.044;2023-02-19T04:05:46;98233.97;;;15.59;45.96
13387;BME280;6763;48.524;9.044;2023-02-19T04:08:18;98236.41;;;15.65;45.97
13387;BME280;6763;48.524;9.044;2023-02-19T04:10:46;98225.16;;;15.63;46.06
13387;BME280;6763;48.524;9.044;2023-02-19T04:13:19;98235.94;;;15.52;46.11
13387;BME280;6763;48.524;9.044;2023-02-19T04:15:48;98239.31;;;15.56;46.30
13387;BME280;6763;48.524;9.044;2023-02-19T04:18:19;98229.69;;;15.58;46.35
13387;BME280;6763;48.524;9.044;2023-02-19T04:20:47;98233.38;;;15.51;46.70
13387;BME280;6763;48.524;9.044;2023-02-19T04:23:16;98245.34;;;15.58;46.52
13387;BME280;6763;48.524;9.044;2023-02-19T04:25:44;98234.81;;;15.61;46.68
13387;BME280;6763;48.524;9.044;2023-02-19T04:28:13;98246.38;;;15.52;46.71
13387;BME280;6763;48.524;9.044;2023-02-19T04:30:40;98236.09;;;15.48;46.99
13387;BME280;6763;48.524;9.044;2023-02-19T04:33:06;98243.75;;;15.52;46.92
13387;BME280;6763;48.524;9.044;2023-02-19T04:35:31;98250.03;;;15.47;46.98
13387;BME280;6763;48.524;9.044;2023-02-19T04:37:56;98250.06;;;15.44;46.97
13387;BME280;6763;48.524;9.044;2023-02-19T04:40:22;98243.09;;;15.46;47.00
13387;BME280;6763;48.524;9.044;2023-02-19T04:42:47;98258.13;;;15.36;47.01
13387;BME280;6763;48.524;9.044;2023-02-19T04:45:12;98258.91;;;15.40;47.21
13387;BME280;6763;48.524;9.044;2023-02-19T04:47:38;98265.66;;;15.48;47.03
13387;BME280;6763;48.524;9.044;2023-02-19T04:50:03;98265.59;;;15.50;46.98
13387;BME280;6763;48.524;9.044;2023-02-19T04:52:28;98265.81;;;15.41;47.23
13387;BME280;6763;48.524;9.044;2023-02-19T04:54:54;98270.88;;;15.47;47.35
13387;BME280;6763;48.524;9.044;2023-02-19T04:57:19;98272.75;;;15.42;47.27
13387;BME280;6763;48.524;9.044;2023-02-19T04:59:45;98278.84;;;15.41;47.61
13387;BME280;6763;48.524;9.044;2023-02-19T05:02:11;98280.53;;;15.43;47.71
13387;BME280;6763;48.524;9.044;2023-02-19T05:04:36;98278.78;;;15.44;47.72
13387;BME280;6763;48.524;9.044;2023-02-19T05:07:01;98288.41;;;15.42;47.74
13387;BME280;6763;48.524;9.044;2023-02-19T05:09:27;98285.00;;;15.40;47.77
13387;BME280;6763;48.524;9.044;2023-02-19T05:11:52;98280.72;;;15.37;47.77
13387;BME280;6763;48.524;9.044;2023-02-19T05:14:17;98279.09;;;15.33;47.83
13387;BME280;6763;48.524;9.044;2023-02-19T05:16:43;98282.56;;;15.34;47.92
13387;BME280;6763;48.524;9.044;2023-02-19T05:19:12;98291.25;;;15.34;47.96
13387;BME280;6763;48.524;9.044;2023-02-19T05:21:37;98286.09;;;15.33;48.13
13387;BME280;6763;48.524;9.044;2023-02-19T05:24:06;98282.63;;;15.31;48.09
13387;BME280;6763;48.524;9.044;2023-02-19T05:26:32;98284.50;;;15.27;48.10
13387;BME280;6763;48.524;9.044;2023-02-19T05:28:58;98279.31;;;15.26;48.23
13387;BME280;6763;48.524;9.044;2023-02-19T05:31:23;98295.97;;;15.22;48.41
13387;BME280;6763;48.524;9.044;2023-02-19T05:33:49;98294.31;;;15.19;48.44
13387;BME280;6763;48.524;9.044;2023-02-19T05:36:18;98303.00;;;15.18;48.28
13387;BME280;6763;48.524;9.044;2023-02-19T05:38:44;98312.69;;;15.15;48.61
13387;BME280;6763;48.524;9.044;2023-02-19T05:41:17;98311.75;;;15.17;48.33
13387;BME280;6763;48.524;9.044;2023-02-19T05:43:44;98314.38;;;15.16;48.93
13387;BME280;6763;48.524;9.044;2023-02-19T05:46:12;98306.56;;;15.16;48.75
13387;BME280;6763;48.524;9.044;2023-02-19T05:48:38;98309.22;;;15.14;48.95
13387;BME280;6763;48.524;9.044;2023-02-19T05:51:06;98313.72;;;15.09;48.88
13387;BME280;6763;48.524;9.044;2023-02-19T05:53:32;98300.69;;;15.09;48.81
13387;BME280;6763;48.524;9.044;2023-02-19T05:55:58;98301.63;;;15.07;48.73
13387;BME280;6763;48.524;9.044;2023-02-19T05:58:24;98310.34;;;15.06;48.92
13387;BME280;6763;48.524;9.044;2023-02-19T06:00:49;98309.53;;;15.04;49.33
13387;BME280;6763;48.524;9.044;2023-02-19T06:03:15;98306.13;;;15.00;49.28
13387;BME280;6763;48.524;9.044;2023-02-19T06:05:40;98320.16;;;14.96;49.06
13387;BME280;6763;48.524;9.044;2023-02-19T06:08:05;98323.78;;;14.90;49.43
13387;BME280;6763;48.524;9.044;2023-02-19T06:10:31;98332.50;;;14.89;49.33
13387;BME280;6763;48.524;9.044;2023-02-19T06:12:56;98328.09;;;14.91;49.41
13387;BME280;6763;48.524;9.044;2023-02-19T06:15:22;98341.97;;;14.92;49.57
13387;BME280;6763;48.524;9.044;2023-02-19T06:17:47;98334.97;;;14.94;49.20
13387;BME280;6763;48.524;9.044;2023-02-19T06:20:13;98344.59;;;14.92;48.97
13387;BME280;6763;48.524;9.044;2023-02-19T06:22:39;98348.06;;;14.93;49.02
13387;BME280;6763;48.524;9.044;2023-02-19T06:25:04;98355.88;;;14.93;49.23
13387;BME280;6763;48.524;9.044;2023-02-19T06:27:32;98351.47;;;14.95;49.21
13387;BME280;6763;48.524;9.044;2023-02-19T06:29:57;98361.03;;;14.94;48.98
13387;BME280;6763;48.524;9.044;2023-02-19T06:32:23;98370.56;;;14.97;49.18
13387;BME280;6763;48.524;9.044;2023-02-19T06:34:48;98371.38;;;14.97;49.06
13387;BME280;6763;48.524;9.044;2023-02-19T06:37:13;98370.50;;;14.98;48.81
13387;BME280;6763;48.524;9.044;2023-02-19T06:39:38;98383.47;;;15.01;48.58
13387;BME280;6763;48.524;9.044;2023-02-19T06:42:04;98387.75;;;15.04;48.21
13387;BME280;6763;48.524;9.044;2023-02-19T06:44:29;98398.16;;;15.04;48.09
13387;BME280;6763;48.524;9.044;2023-02-19T06:46:54;98411.06;;;15.08;47.88
13387;BME280;6763;48.524;9.044;2023-02-19T06:49:20;98408.63;;;15.02;48.10
13387;BME280;6763;48.524;9.044;2023-02-19T06:51:45;98419.53;;;14.84;49.02
13387;BME280;6763;48.524;9.044;2023-02-19T06:54:11;98432.25;;;14.61;50.11
13387;BME280;6763;48.524;9.044;2023-02-19T06:56:38;98436.31;;;14.37;50.80
13387;BME280;6763;48.524;9.044;2023-02-19T06:59:07;98438.50;;;14.17;51.48
13387;BME280;6763;48.524;9.044;2023-02-19T07:01:34;98449.28;;;14.00;51.60
13387;BME280;6763;48.524;9.044;2023-02-19T07:04:00;98444.31;;;13.90;52.61
13387;BME280;6763;48.524;9.044;2023-02-19T07:06:26;98454.88;;;13.82;53.34
13387;BME280;6763;48.524;9.044;2023-02-19T07:08:55;98448.88;;;13.79;52.90
13387;BME280;6763;48.524;9.044;2023-02-19T07:11:21;98460.22;;;13.76;53.37
13387;BME280;6763;48.524;9.044;2023-02-19T07:13:47;98462.00;;;13.74;53.48
13387;BME280;6763;48.524;9.044;2023-02-19T07:16:12;98465.44;;;13.75;54.00
13387;BME280;6763;48.524;9.044;2023-02-19T07:18:38;98465.44;;;13.75;53.39
13387;BME280;6763;48.524;9.044;2023-02-19T07:21:09;98472.34;;;13.76;53.77
13387;BME280;6763;48.524;9.044;2023-02-19T07:23:35;98471.47;;;13.77;53.66
13387;BME280;6763;48.524;9.044;2023-02-19T07:26:01;98474.94;;;13.77;53.09
13387;BME280;6763;48.524;9.044;2023-02-19T07:28:26;98485.31;;;13.79;52.91
13387;BME280;6763;48.524;9.044;2023-02-19T07:30:52;98485.19;;;13.83;52.60
13387;BME280;6763;48.524;9.044;2023-02-19T07:33:18;98484.28;;;13.87;52.37
13387;BME280;6763;48.524;9.044;2023-02-19T07:35:47;98491.91;;;13.95;51.88
13387;BME280;6763;48.524;9.044;2023-02-19T07:38:16;98489.97;;;14.04;52.03
13387;BME280;6763;48.524;9.044;2023-02-19T07:40:59;98490.72;;;14.11;51.37
13387;BME280;6763;48.524;9.044;2023-02-19T07:43:26;98475.03;;;14.12;51.28
13387;BME280;6763;48.524;9.044;2023-02-19T07:45:52;98482.72;;;14.18;50.87
13387;BME280;6763;48.524;9.044;2023-02-19T07:48:18;98476.50;;;14.25;50.60
13387;BME280;6763;48.524;9.044;2023-02-19T07:50:54;98484.16;;;14.33;49.48
13387;BME280;6763;48.524;9.044;2023-02-19T07:53:21;98475.25;;;14.43;49.08
13387;BME280;6763;48.524;9.044;2023-02-19T07:55:47;98482.03;;;14.50;48.68
13387;BME280;6763;48.524;9.044;2023-02-19T07:58:12;98489.69;;;14.56;48.87
13387;BME280;6763;48.524;9.044;2023-02-19T08:00:38;98486.97;;;14.61;48.29
13387;BME280;6763;48.524;9.044;2023-02-19T08:03:03;98487.66;;;14.69;47.75
13387;BME280;6763;48.524;9.044;2023-02-19T08:05:31;98485.88;;;14.71;47.70
13387;BME280;6763;48.524;9.044;2023-02-19T08:07:58;98485.72;;;14.77;47.11
13387;BME280;6763;48.524;9.044;2023-02-19T08:10:24;98489.88;;;14.85;47.02
13387;BME280;6763;48.524;9.044;2023-02-19T08:13:11;98498.38;;;14.92;46.91
13387;BME280;6763;48.524;9.044;2023-02-19T08:16:08;98498.50;;;14.87;46.38
13387;BME280;6763;48.524;9.044;2023-02-19T08:18:31;98497.69;;;14.85;46.34
13387;BME280;6763;48.524;9.044;2023-02-19T08:20:57;98499.50;;;14.83;46.87
13387;BME280;6763;48.524;9.044;2023-02-19T08:23:23;98499.56;;;14.80;46.95
13387;BME280;6763;48.524;9.044;2023-02-19T08:25:50;98507.31;;;14.82;47.25
13387;BME280;6763;48.524;9.044;2023-02-19T08:28:16;98503.03;;;14.81;46.84
13387;BME280;6763;48.524;9.044;2023-02-19T08:30:44;98505.09;;;14.67;47.28
13387;BME280;6763;48.524;9.044;2023-02-19T08:33:15;98510.47;;;14.59;47.75
13387;BME280;6763;48.524;9.044;2023-02-19T08:35:40;98518.31;;;14.58;47.98
13387;BME280;6763;48.524;9.044;2023-02-19T08:38:07;98518.13;;;14.67;47.64
13387;BME280;6763;48.524;9.044;2023-02-19T08:40:33;98518.66;;;14.81;47.42
13387;BME280;6763;48.524;9.044;2023-02-19T08:43:01;98517.44;;;14.96;46.92
13387;BME280;6763;48.524;9.044;2023-02-19T08:45:27;98520.72;;;15.02;46.39
13387;BME280;6763;48.524;9.044;2023-02-19T08:47:55;98527.41;;;15.12;46.31
13387;BME280;6763;48.524;9.044;2023-02-19T08:50:21;98528.19;;;15.17;46.18
13387;BME280;6763;48.524;9.044;2023-02-19T08:52:46;98533.47;;;15.14;46.38
13387;BME280;6763;48.524;9.044;2023-02-19T08:55:12;98537.84;;;15.12;46.31
13387;BME280;6763;48.524;9.044;2023-02-19T08:57:37;98543.91;;;15.14;46.56
13387;BME280;6763;48.524;9.044;2023-02-19T09:00:04;98543.66;;;15.23;46.41
13387;BME280;6763;48.524;9.044;2023-02-19T09:02:30;98547.00;;;15.30;46.08
13387;BME280;6763;48.524;9.044;2023-02-19T09:04:55;98538.25;;;15.31;45.75
13387;BME280;6763;48.524;9.044;2023-02-19T09:07:21;98537.16;;;15.39;45.58
13387;BME280;6763;48.524;9.044;2023-02-19T09:09:47;98535.28;;;15.46;44.96
13387;BME280;6763;48.524;9.044;2023-02-19T09:12:12;98544.88;;;15.45;44.70
13387;BME280;6763;48.524;9.044;2023-02-19T09:14:38;98542.25;;;15.44;44.47
13387;BME280;6763;48.524;9.044;2023-02-19T09:17:08;98546.59;;;15.45;44.47
13387;BME280;6763;48.524;9.044;2023-02-19T09:19:34;98550.94;;;15.44;44.63
13387;BME280;6763;48.524;9.044;2023-02-19T09:22:00;98560.56;;;15.42;44.94
13387;BME280;6763;48.524;9.044;2023-02-19T09:24:25;98564.13;;;15.40;44.56
13387;BME280;6763;48.524;9.044;2023-02-19T09:26:52;98557.31;;;15.34;45.11
13387;BME280;6763;48.524;9.044;2023-02-19T09:29:19;98571.31;;;15.30;45.33
13387;BME280;6763;48.524;9.044;2023-02-19T09:31:44;98575.75;;;15.27;45.84
13387;BME280;6763;48.524;9.044;2023-02-19T09:34:10;98583.59;;;15.27;45.72
13387;BME280;6763;48.524;9.044;2023-02-19T09:36:36;98580.91;;;15.28;45.38
13387;BME280;6763;48.524;9.044;2023-02-19T09:39:03;98581.56;;;15.38;45.10
13387;BME280;6763;48.524;9.044;2023-02-19T09:44:03;98583.22;;;15.76;43.85
13387;BME280;6763;48.524;9.044;2023-02-19T09:46:50;98579.31;;;15.90;43.22
13387;BME280;6763;48.524;9.044;2023-02-19T09:49:19;98587.72;;;16.03;43.08
13387;BME280;6763;48.524;9.044;2023-02-19T09:52:01;98604.13;;;16.06;42.25
13387;BME280;6763;48.524;9.044;2023-02-19T09:54:29;98603.56;;;15.95;41.91
13387;BME280;6763;48.524;9.044;2023-02-19T09:56:57;98609.63;;;15.96;41.97
13387;BME280;6763;48.524;9.044;2023-02-19T09:59:27;98617.41;;;15.99;42.28
13387;BME280;6763;48.524;9.044;2023-02-19T10:02:23;98614.72;;;16.02;41.99
13387;BME280;6763;48.524;9.044;2023-02-19T10:04:49;98618.38;;;15.95;41.88
13387;BME280;6763;48.524;9.044;2023-02-19T10:07:18;98618.41;;;15.93;41.69
13387;BME280;6763;48.524;9.044;2023-02-19T10:09:50;98626.56;;;15.81;41.79
13387;BME280;6763;48.524;9.044;2023-02-19T10:12:28;98633.59;;;15.79;42.41
13387;BME280;6763;48.524;9.044;2023-02-19T10:15:00;98640.50;;;15.80;42.74
13387;BME280;6763;48.524;9.044;2023-02-19T10:17:29;98629.59;;;15.66;43.42
13387;BME280;6763;48.524;9.044;2023-02-19T10:19:56;98643.84;;;15.53;44.03
13387;BME280;6763;48.524;9.044;2023-02-19T10:22:22;98643.97;;;15.48;44.07
13387;BME280;6763;48.524;9.044;2023-02-19T10:24:51;98650.06;;;15.47;44.89
13387;BME280;6763;48.524;9.044;2023-02-19T10:27:17;98660.66;;;15.38;45.05
13387;BME280;6763;48.524;9.044;2023-02-19T10:29:44;98655.06;;;15.18;46.08
13387;BME280;6763;48.524;9.044;2023-02-19T10:32:18;98642.44;;;15.00;46.90
13387;BME280;6763;48.524;9.044;2023-02-19T10:34:47;98647.53;;;14.68;47.96
13387;BME280;6763;48.524;9.044;2023-02-19T10:37:15;98636.63;;;14.48;48.61
13387;BME280;6763;48.524;9.044;2023-02-19T10:39:46;98639.44;;;14.39;49.43
13387;BME280;6763;48.524;9.044;2023-02-19T10:42:20;98636.75;;;14.43;49.39
13387;BME280;6763;48.524;9.044;2023-02-19T10:44:50;98643.41;;;14.56;49.18
13387;BME280;6763;48.524;9.044;2023-02-19T10:47:21;98645.53;;;14.79;48.72
13387;BME280;6763;48.524;9.044;2023-02-19T10:49:49;98646.03;;;14.95;48.38
13387;BME280;6763;48.524;9.044;2023-02-19T10:54:45;98651.28;;;15.31;47.45
13387;BME280;6763;48.524;9.044;2023-02-19T10:59:57;98652.06;;;15.72;46.84
13387;BME280;6763;48.524;9.044;2023-02-19T11:02:24;98659.50;;;15.87;46.66
13387;BME280;6763;48.524;9.044;2023-02-19T11:07:30;98651.06;;;16.09;45.92
13387;BME280;6763;48.524;9.044;2023-02-19T11:09:56;98647.22;;;16.23;45.72
13387;BME280;6763;48.524;9.044;2023-02-19T11:12:26;98642.50;;;16.35;45.13
13387;BME280;6763;48.524;9.044;2023-02-19T11:14:52;98640.47;;;16.45;43.85
13387;BME280;6763;48.524;9.044;2023-02-19T11:17:23;98645.53;;;16.52;43.22
13387;BME280;6763;48.524;9.044;2023-02-19T11:19:57;98638.25;;;16.63;42.54
13387;BME280;6763;48.524;9.044;2023-02-19T11:22:30;98637.06;;;16.73;42.09
13387;BME280;6763;48.524;9.044;2023-02-19T11:25:03;98625.56;;;16.79;41.20
13387;BME280;6763;48.524;9.044;2023-02-19T11:27:29;98623.00;;;16.78;40.63
13387;BME280;6763;48.524;9.044;2023-02-19T11:32:50;98620.50;;;16.74;39.22
13387;BME280;6763;48.524;9.044;2023-02-19T11:35:20;98623.19;;;16.71;39.10
13387;BME280;6763;48.524;9.044;2023-02-19T11:37:56;98620.63;;;16.70;39.08
13387;BME280;6763;48.524;9.044;2023-02-19T11:40:34;98622.53;;;16.65;39.20
13387;BME280;6763;48.524;9.044;2023-02-19T11:46:21;98611.66;;;16.48;37.43
13387;BME280;6763;48.524;9.044;2023-02-19T11:49:14;98618.63;;;16.47;37.75
13387;BME280;6763;48.524;9.044;2023-02-19T11:57:30;98623.09;;;16.74;37.00
13387;BME280;6763;48.524;9.044;2023-02-19T12:06:18;98632.06;;;16.95;36.13
13387;BME280;6763;48.524;9.044;2023-02-19T12:08:51;98622.31;;;17.00;36.66
13387;BME280;6763;48.524;9.044;2023-02-19T12:16:38;98655.75;;;17.18;37.01
13387;BME280;6763;48.524;9.044;2023-02-19T12:22:28;98659.47;;;17.11;36.02
13387;BME280;6763;48.524;9.044;2023-02-19T12:27:38;98652.50;;;17.10;34.81
13387;BME280;6763;48.524;9.044;2023-02-19T12:30:48;98666.19;;;16.91;35.08
13387;BME280;6763;48.524;9.044;2023-02-19T12:36:09;98658.44;;;16.58;35.70
13387;BME280;6763;48.524;9.044;2023-02-19T12:38:44;98657.16;;;16.41;36.28
13387;BME280;6763;48.524;9.044;2023-02-19T12:41:19;98642.72;;;16.28;36.53
13387;BME280;6763;48.524;9.044;2023-02-19T12:44:04;98630.66;;;16.24;36.79
13387;BME280;6763;48.524;9.044;2023-02-19T12:46:48;98629.59;;;16.29;37.05
13387;BME280;6763;48.524;9.044;2023-02-19T12:49:29;98629.38;;;16.37;36.97
13387;BME280;6763;48.524;9.044;2023-02-19T12:52:06;98626.47;;;16.47;37.65
13387;BME280;6763;48.524;9.044;2023-02-19T12:54:37;98626.47;;;16.47;38.10
13387;BME280;6763;48.524;9.044;2023-02-19T12:57:22;98618.03;;;16.38;39.01
13387;BME280;6763;48.524;9.044;2023-02-19T12:59:54;98613.75;;;16.35;39.42
13387;BME280;6763;48.524;9.044;2023-02-19T13:02:27;98618.75;;;16.44;39.86
13387;BME280;6763;48.524;9.044;2023-02-19T13:07:43;98621.47;;;16.70;38.26
13387;BME280;6763;48.524;9.044;2023-02-19T13:12:38;98603.66;;;17.11;37.50
13387;BME280;6763;48.524;9.044;2023-02-19T13:15:17;98582.13;;;17.29;36.94
13387;BME280;6763;48.524;9.044;2023-02-19T13:17:49;98579.00;;;17.44;36.23
13387;BME280;6763;48.524;9.044;2023-02-19T13:26:43;98577.16;;;18.45;34.33
13387;BME280;6763;48.524;9.044;2023-02-19T13:35:23;98575.41;;;18.69;32.24
13387;BME280;6763;48.524;9.044;2023-02-19T13:37:50;98583.13;;;18.50;32.78
13387;BME280;6763;48.524;9.044;2023-02-19T13:40:34;98600.47;;;18.29;32.87
13387;BME280;6763;48.524;9.044;2023-02-19T13:43:05;98584.94;;;18.25;33.31
13387;BME280;6763;48.524;9.044;2023-02-19T13:45:42;98599.91;;;18.21;33.69
13387;BME280;6763;48.524;9.044;2023-02-19T13:48:31;98595.69;;;18.17;33.82
13387;BME280;6763;48.524;9.044;2023-02-19T14:04:39;98588.94;;;17.34;35.00
13387;BME280;6763;48.524;9.044;2023-02-19T14:19:57;98589.38;;;16.65;35.67
13387;BME280;6763;48.524;9.044;2023-02-19T14:27:49;98609.19;;;16.43;36.73
13387;BME280;6763;48.524;9.044;2023-02-19T14:30:16;98618.22;;;16.32;37.54
13387;BME280;6763;48.524;9.044;2023-02-19T14:32:42;98625.31;;;16.28;37.53
13387;BME280;6763;48.524;9.044;2023-02-19T14:35:18;98626.38;;;16.21;38.13
13387;BME280;6763;48.524;9.044;2023-02-19T14:37:45;98639.16;;;15.98;39.13
13387;BME280;6763;48.524;9.044;2023-02-19T14:40:31;98633.75;;;15.73;39.94
13387;BME280;6763;48.524;9.044;2023-02-19T14:42:58;98641.91;;;15.61;40.91
13387;BME280;6763;48.524;9.044;2023-02-19T14:45:26;98639.38;;;15.57;40.62
13387;BME280;6763;48.524;9.044;2023-02-19T14:47:54;98633.28;;;15.58;40.33
13387;BME280;6763;48.524;9.044;2023-02-19T14:50:29;98639.25;;;15.63;40.39
13387;BME280;6763;48.524;9.044;2023-02-19T14:53:02;98647.59;;;15.75;40.11
13387;BME280;6763;48.524;9.044;2023-02-19T14:55:33;98638.63;;;15.87;39.96
13387;BME280;6763;48.524;9.044;2023-02-19T14:58:04;98635.88;;;15.91;40.28
13387;BME280;6763;48.524;9.044;2023-02-19T15:00:36;98633.53;;;15.81;40.22
13387;BME280;6763;48.524;9.044;2023-02-19T15:03:02;98634.09;;;15.60;40.41
13387;BME280;6763;48.524;9.044;2023-02-19T15:05:31;98638.31;;;15.65;40.46
13387;BME280;6763;48.524;9.044;2023-02-19T15:07:59;98637.97;;;15.77;40.15
13387;BME280;6763;48.524;9.044;2023-02-19T15:10:28;98651.69;;;15.85;40.01
13387;BME280;6763;48.524;9.044;2023-02-19T15:13:05;98650.69;;;15.91;39.92
13387;BME280;6763;48.524;9.044;2023-02-19T15:15:35;98655.09;;;15.89;40.09
13387;BME280;6763;48.524;9.044;2023-02-19T15:18:02;98661.31;;;15.85;39.81
13387;BME280;6763;48.524;9.044;2023-02-19T15:20:31;98651.81;;;15.81;40.26
13387;BME280;6763;48.524;9.044;2023-02-19T15:22:58;98655.38;;;15.78;40.54
13387;BME280;6763;48.524;9.044;2023-02-19T15:25:45;98653.16;;;15.63;40.96
13387;BME280;6763;48.524;9.044;2023-02-19T15:28:27;98669.94;;;15.51;41.22
13387;BME280;6763;48.524;9.044;2023-02-19T15:33:22;98664.94;;;15.41;41.48
13387;BME280;6763;48.524;9.044;2023-02-19T15:35:55;98674.47;;;15.43;41.61
13387;BME280;6763;48.524;9.044;2023-02-19T15:38:22;98678.75;;;15.47;41.55
13387;BME280;6763;48.524;9.044;2023-02-19T15:40:48;98683.00;;;15.51;41.51